sensor_id;sensor_type;location;lat;lon;timestamp;temperature;humidity
21023;DHT22;10669;51.076;3.714;2022-12-05T00:00:34;2.70;99.90
21023;DHT22;10669;51.076;3.714;2022-12-05T00:03:06;2.60;99.90
21023;DHT22;10669;51.076;3.714;2022-12-05T00:05:33;2.60;99.90
21023;DHT22;10669;51.076;3.714;2022-12-05T00:08:03;2.60;99.90
21023;DHT22;10669;51.076;3.714;2022-12-05T00:10:29;2.50;99.90
21023;DHT22;10669;51.076;3.714;2022-12-05T00:12:54;2.50;99.90
21023;DHT22;10669;51.076;3.714;2022-12-05T00:15:21;2.60;99.90
21023;DHT22;10669;51.076;3.714;2022-12-05T00:17:47;2.50;99.90
21023;DHT22;10669;51.076;3.714;2022-12-05T00:20:13;2.50;99.90
21023;DHT22;10669;51.076;3.714;2022-12-05T00:22:39;2.50;99.90
21023;DHT22;10669;51.076;3.714;2022-12-05T00:25:05;2.60;99.90
21023;DHT22;10669;51.076;3.714;2022-12-05T00:27:32;2.70;99.90
21023;DHT22;10669;51.076;3.714;2022-12-05T00:29:57;2.60;99.90
21023;DHT22;10669;51.076;3.714;2022-12-05T00:32:23;2.50;99.90
21023;DHT22;10669;51.076;3.714;2022-12-05T00:34:49;2.60;99.90
21023;DHT22;10669;51.076;3.714;2022-12-05T00:37:14;2.60;99.90
21023;DHT22;10669;51.076;3.714;2022-12-05T00:39:40;2.60;99.90
21023;DHT22;10669;51.076;3.714;2022-12-05T00:42:05;2.70;99.90
21023;DHT22;10669;51.076;3.714;2022-12-05T00:44:31;2.80;99.90
21023;DHT22;10669;51.076;3.714;2022-12-05T00:46:58;2.80;99.90
21023;DHT22;10669;51.076;3.714;2022-12-05T00:49:24;2.90;99.90
21023;DHT22;10669;51.076;3.714;2022-12-05T00:51:50;2.80;99.00
21023;DHT22;10669;51.076;3.714;2022-12-05T00:54:16;2.80;99.30
21023;DHT22;10669;51.076;3.714;2022-12-05T00:56:42;2.80;99.50
21023;DHT22;10669;51.076;3.714;2022-12-05T00:59:16;2.90;99.80
21023;DHT22;10669;51.076;3.714;2022-12-05T01:01:43;2.90;97.60
21023;DHT22;10669;51.076;3.714;2022-12-05T01:04:12;2.90;97.70
21023;DHT22;10669;51.076;3.714;2022-12-05T01:06:38;3.10;98.40
21023;DHT22;10669;51.076;3.714;2022-12-05T01:09:06;3.10;96.00
21023;DHT22;10669;51.076;3.714;2022-12-05T01:11:32;3.00;94.90
21023;DHT22;10669;51.076;3.714;2022-12-05T01:13:59;2.80;96.00
21023;DHT22;10669;51.076;3.714;2022-12-05T01:16:33;2.80;97.70
21023;DHT22;10669;51.076;3.714;2022-12-05T01:19:02;2.80;98.30
21023;DHT22;10669;51.076;3.714;2022-12-05T01:21:28;2.80;97.50
21023;DHT22;10669;51.076;3.714;2022-12-05T01:23:55;2.90;97.60
21023;DHT22;10669;51.076;3.714;2022-12-05T01:26:24;2.80;97.90
21023;DHT22;10669;51.076;3.714;2022-12-05T01:28:50;2.80;98.60
21023;DHT22;10669;51.076;3.714;2022-12-05T01:31:31;2.80;99.20
21023;DHT22;10669;51.076;3.714;2022-12-05T01:33:59;2.90;99.30
21023;DHT22;10669;51.076;3.714;2022-12-05T01:36:26;2.80;99.00
21023;DHT22;10669;51.076;3.714;2022-12-05T01:38:54;2.80;99.90
21023;DHT22;10669;51.076;3.714;2022-12-05T01:41:23;2.90;99.60
21023;DHT22;10669;51.076;3.714;2022-12-05T01:46:35;2.80;99.90
21023;DHT22;10669;51.076;3.714;2022-12-05T01:49:07;3.00;99.90
21023;DHT22;10669;51.076;3.714;2022-12-05T01:51:35;3.10;99.90
21023;DHT22;10669;51.076;3.714;2022-12-05T01:54:03;3.00;99.90
21023;DHT22;10669;51.076;3.714;2022-12-05T01:56:30;2.90;99.90
21023;DHT22;10669;51.076;3.714;2022-12-05T01:58:58;2.80;99.90
21023;DHT22;10669;51.076;3.714;2022-12-05T02:01:25;2.80;99.90
21023;DHT22;10669;51.076;3.714;2022-12-05T02:03:54;2.70;99.90
21023;DHT22;10669;51.076;3.714;2022-12-05T02:06:24;2.70;99.90
21023;DHT22;10669;51.076;3.714;2022-12-05T02:08:54;2.70;99.90
21023;DHT22;10669;51.076;3.714;2022-12-05T02:11:21;2.60;99.90
21023;DHT22;10669;51.076;3.714;2022-12-05T02:22:37;2.70;99.90
21023;DHT22;10669;51.076;3.714;2022-12-05T02:30:39;2.80;99.90
21023;DHT22;10669;51.076;3.714;2022-12-05T02:38:16;2.70;99.90
21023;DHT22;10669;51.076;3.714;2022-12-05T02:41:01;2.70;99.90
21023;DHT22;10669;51.076;3.714;2022-12-05T02:44:25;2.60;99.90
21023;DHT22;10669;51.076;3.714;2022-12-05T02:46:54;2.60;99.90
21023;DHT22;10669;51.076;3.714;2022-12-05T02:49:29;2.70;99.90
21023;DHT22;10669;51.076;3.714;2022-12-05T02:51:57;2.80;99.90
21023;DHT22;10669;51.076;3.714;2022-12-05T02:54:35;2.80;99.90
21023;DHT22;10669;51.076;3.714;2022-12-05T02:57:03;2.90;99.90
21023;DHT22;10669;51.076;3.714;2022-12-05T02:59:30;2.90;99.90
21023;DHT22;10669;51.076;3.714;2022-12-05T03:01:55;2.70;99.90
21023;DHT22;10669;51.076;3.714;2022-12-05T03:04:23;2.70;99.90
21023;DHT22;10669;51.076;3.714;2022-12-05T03:07:18;2.80;99.90
21023;DHT22;10669;51.076;3.714;2022-12-05T03:09:49;2.80;99.90
21023;DHT22;10669;51.076;3.714;2022-12-05T03:12:24;2.80;99.90
21023;DHT22;10669;51.076;3.714;2022-12-05T03:17:34;2.70;99.90
21023;DHT22;10669;51.076;3.714;2022-12-05T03:20:10;2.70;99.90
21023;DHT22;10669;51.076;3.714;2022-12-05T03:22:56;2.80;99.90
21023;DHT22;10669;51.076;3.714;2022-12-05T03:25:28;2.90;99.90
21023;DHT22;10669;51.076;3.714;2022-12-05T03:28:20;2.80;99.90
21023;DHT22;10669;51.076;3.714;2022-12-05T03:30:52;2.80;99.90
21023;DHT22;10669;51.076;3.714;2022-12-05T03:33:28;2.80;99.90
21023;DHT22;10669;51.076;3.714;2022-12-05T03:36:05;2.70;99.90
21023;DHT22;10669;51.076;3.714;2022-12-05T03:38:43;2.70;99.90
21023;DHT22;10669;51.076;3.714;2022-12-05T03:41:19;2.70;99.90
21023;DHT22;10669;51.076;3.714;2022-12-05T03:46:40;2.60;99.90
21023;DHT22;10669;51.076;3.714;2022-12-05T03:49:22;2.70;99.90
21023;DHT22;10669;51.076;3.714;2022-12-05T03:52:03;2.70;99.90
21023;DHT22;10669;51.076;3.714;2022-12-05T03:54:34;2.90;99.90
21023;DHT22;10669;51.076;3.714;2022-12-05T03:59:43;2.80;99.90
21023;DHT22;10669;51.076;3.714;2022-12-05T04:02:24;2.90;99.90
21023;DHT22;10669;51.076;3.714;2022-12-05T04:05:02;2.90;99.90
21023;DHT22;10669;51.076;3.714;2022-12-05T04:07:30;2.80;99.90
21023;DHT22;10669;51.076;3.714;2022-12-05T04:10:04;3.00;99.90
21023;DHT22;10669;51.076;3.714;2022-12-05T04:12:32;2.90;99.90
21023;DHT22;10669;51.076;3.714;2022-12-05T04:15:03;2.90;99.90
21023;DHT22;10669;51.076;3.714;2022-12-05T04:17:47;3.00;99.90
21023;DHT22;10669;51.076;3.714;2022-12-05T04:20:38;2.90;99.90
21023;DHT22;10669;51.076;3.714;2022-12-05T04:23:24;2.90;99.90
21023;DHT22;10669;51.076;3.714;2022-12-05T04:25:55;3.00;99.90
21023;DHT22;10669;51.076;3.714;2022-12-05T04:38:40;2.90;99.90
21023;DHT22;10669;51.076;3.714;2022-12-05T04:41:14;3.00;99.90
21023;DHT22;10669;51.076;3.714;2022-12-05T04:43:45;3.00;99.90
21023;DHT22;10669;51.076;3.714;2022-12-05T04:46:13;3.00;99.90
21023;DHT22;10669;51.076;3.714;2022-12-05T04:48:44;3.00;99.90
21023;DHT22;10669;51.076;3.714;2022-12-05T04:51:17;3.20;99.90
21023;DHT22;10669;51.076;3.714;2022-12-05T04:53:48;3.10;99.90
21023;DHT22;10669;51.076;3.714;2022-12-05T04:56:18;3.10;99.90
21023;DHT22;10669;51.076;3.714;2022-12-05T04:58:45;3.10;99.90
21023;DHT22;10669;51.076;3.714;2022-12-05T05:03:56;3.10;99.90
21023;DHT22;10669;51.076;3.714;2022-12-05T05:06:24;3.10;99.90
21023;DHT22;10669;51.076;3.714;2022-12-05T05:08:54;3.20;99.90
21023;DHT22;10669;51.076;3.714;2022-12-05T05:11:26;3.50;99.90
21023;DHT22;10669;51.076;3.714;2022-12-05T05:13:53;3.20;99.90
21023;DHT22;10669;51.076;3.714;2022-12-05T05:16:21;3.10;99.90
21023;DHT22;10669;51.076;3.714;2022-12-05T05:18:49;3.10;99.90
21023;DHT22;10669;51.076;3.714;2022-12-05T05:21:28;3.10;99.90
21023;DHT22;10669;51.076;3.714;2022-12-05T05:23:55;3.10;99.90
21023;DHT22;10669;51.076;3.714;2022-12-05T05:26:24;3.00;99.90
21023;DHT22;10669;51.076;3.714;2022-12-05T05:28:50;3.10;99.90
21023;DHT22;10669;51.076;3.714;2022-12-05T05:31:17;3.20;99.90
21023;DHT22;10669;51.076;3.714;2022-12-05T05:33:43;3.60;99.90
21023;DHT22;10669;51.076;3.714;2022-12-05T05:36:11;3.50;99.90
21023;DHT22;10669;51.076;3.714;2022-12-05T05:38:39;3.50;99.90
21023;DHT22;10669;51.076;3.714;2022-12-05T05:41:05;3.50;99.90
21023;DHT22;10669;51.076;3.714;2022-12-05T05:43:36;3.50;99.90
21023;DHT22;10669;51.076;3.714;2022-12-05T05:46:03;3.60;99.90
21023;DHT22;10669;51.076;3.714;2022-12-05T05:48:29;3.80;99.90
21023;DHT22;10669;51.076;3.714;2022-12-05T05:50:58;3.80;99.90
21023;DHT22;10669;51.076;3.714;2022-12-05T05:53:24;3.60;99.90
21023;DHT22;10669;51.076;3.714;2022-12-05T05:55:50;3.70;99.90
21023;DHT22;10669;51.076;3.714;2022-12-05T05:58:17;3.80;99.90
21023;DHT22;10669;51.076;3.714;2022-12-05T06:00:43;3.90;99.90
21023;DHT22;10669;51.076;3.714;2022-12-05T06:03:08;4.10;99.90
21023;DHT22;10669;51.076;3.714;2022-12-05T06:05:34;4.40;99.90
21023;DHT22;10669;51.076;3.714;2022-12-05T06:07:59;4.20;99.90
21023;DHT22;10669;51.076;3.714;2022-12-05T06:10:25;4.40;99.90
21023;DHT22;10669;51.076;3.714;2022-12-05T06:12:51;4.30;99.90
21023;DHT22;10669;51.076;3.714;2022-12-05T06:15:19;3.90;99.90
21023;DHT22;10669;51.076;3.714;2022-12-05T06:17:45;3.70;99.90
21023;DHT22;10669;51.076;3.714;2022-12-05T06:20:13;3.70;99.90
21023;DHT22;10669;51.076;3.714;2022-12-05T06:22:39;3.60;99.90
21023;DHT22;10669;51.076;3.714;2022-12-05T06:25:05;3.70;99.90
21023;DHT22;10669;51.076;3.714;2022-12-05T06:27:33;3.50;99.90
21023;DHT22;10669;51.076;3.714;2022-12-05T06:29:59;3.50;99.90
21023;DHT22;10669;51.076;3.714;2022-12-05T06:32:26;3.50;99.90
21023;DHT22;10669;51.076;3.714;2022-12-05T06:34:52;3.60;99.90
21023;DHT22;10669;51.076;3.714;2022-12-05T06:37:20;3.60;99.90
21023;DHT22;10669;51.076;3.714;2022-12-05T06:39:46;3.60;99.90
21023;DHT22;10669;51.076;3.714;2022-12-05T06:42:12;3.60;99.90
21023;DHT22;10669;51.076;3.714;2022-12-05T06:44:37;3.50;99.90
21023;DHT22;10669;51.076;3.714;2022-12-05T06:47:04;3.60;99.90
21023;DHT22;10669;51.076;3.714;2022-12-05T06:49:29;3.50;99.90
21023;DHT22;10669;51.076;3.714;2022-12-05T06:51:58;3.50;99.90
21023;DHT22;10669;51.076;3.714;2022-12-05T06:54:24;3.70;99.90
21023;DHT22;10669;51.076;3.714;2022-12-05T06:56:50;3.80;99.90
21023;DHT22;10669;51.076;3.714;2022-12-05T06:59:18;3.80;99.90
21023;DHT22;10669;51.076;3.714;2022-12-05T07:01:43;4.10;99.90
21023;DHT22;10669;51.076;3.714;2022-12-05T07:04:16;3.90;99.90
21023;DHT22;10669;51.076;3.714;2022-12-05T07:06:43;3.70;99.90
21023;DHT22;10669;51.076;3.714;2022-12-05T07:09:10;3.60;99.90
21023;DHT22;10669;51.076;3.714;2022-12-05T07:11:36;3.60;99.90
21023;DHT22;10669;51.076;3.714;2022-12-05T07:14:02;3.50;99.90
21023;DHT22;10669;51.076;3.714;2022-12-05T07:16:28;3.50;99.90
21023;DHT22;10669;51.076;3.714;2022-12-05T07:19:00;3.80;99.90
21023;DHT22;10669;51.076;3.714;2022-12-05T07:21:26;3.60;99.90
21023;DHT22;10669;51.076;3.714;2022-12-05T07:23:51;3.70;99.90
21023;DHT22;10669;51.076;3.714;2022-12-05T07:26:24;3.80;99.90
21023;DHT22;10669;51.076;3.714;2022-12-05T07:28:50;4.00;99.90
21023;DHT22;10669;51.076;3.714;2022-12-05T07:31:19;4.00;99.90
21023;DHT22;10669;51.076;3.714;2022-12-05T07:33:46;4.30;99.90
21023;DHT22;10669;51.076;3.714;2022-12-05T07:36:16;4.20;99.90
21023;DHT22;10669;51.076;3.714;2022-12-05T07:38:43;4.30;99.90
21023;DHT22;10669;51.076;3.714;2022-12-05T07:41:24;4.50;99.90
21023;DHT22;10669;51.076;3.714;2022-12-05T07:43:51;4.70;99.90
21023;DHT22;10669;51.076;3.714;2022-12-05T07:46:18;4.50;99.90
21023;DHT22;10669;51.076;3.714;2022-12-05T07:48:47;4.20;99.90
21023;DHT22;10669;51.076;3.714;2022-12-05T07:51:13;4.00;99.90
21023;DHT22;10669;51.076;3.714;2022-12-05T07:53:40;4.00;99.90
21023;DHT22;10669;51.076;3.714;2022-12-05T07:56:10;3.90;99.90
21023;DHT22;10669;51.076;3.714;2022-12-05T07:58:46;4.20;99.90
21023;DHT22;10669;51.076;3.714;2022-12-05T08:01:20;4.40;99.90
21023;DHT22;10669;51.076;3.714;2022-12-05T08:03:46;4.20;99.90
21023;DHT22;10669;51.076;3.714;2022-12-05T08:06:17;4.30;99.90
21023;DHT22;10669;51.076;3.714;2022-12-05T08:08:44;4.30;99.90
21023;DHT22;10669;51.076;3.714;2022-12-05T08:11:12;4.10;99.90
21023;DHT22;10669;51.076;3.714;2022-12-05T08:13:38;4.00;99.90
21023;DHT22;10669;51.076;3.714;2022-12-05T08:16:11;3.90;99.90
21023;DHT22;10669;51.076;3.714;2022-12-05T08:18:39;3.90;99.90
21023;DHT22;10669;51.076;3.714;2022-12-05T08:21:10;3.80;99.90
21023;DHT22;10669;51.076;3.714;2022-12-05T08:23:38;3.90;99.90
21023;DHT22;10669;51.076;3.714;2022-12-05T08:26:09;4.00;99.90
21023;DHT22;10669;51.076;3.714;2022-12-05T08:28:35;4.00;99.90
21023;DHT22;10669;51.076;3.714;2022-12-05T08:33:36;4.00;99.90
21023;DHT22;10669;51.076;3.714;2022-12-05T08:36:05;4.10;99.90
21023;DHT22;10669;51.076;3.714;2022-12-05T08:38:33;4.30;99.90
21023;DHT22;10669;51.076;3.714;2022-12-05T08:41:07;4.20;99.90
21023;DHT22;10669;51.076;3.714;2022-12-05T08:43:33;4.20;99.90
21023;DHT22;10669;51.076;3.714;2022-12-05T08:46:00;4.40;99.90
21023;DHT22;10669;51.076;3.714;2022-12-05T08:48:27;4.30;99.90
21023;DHT22;10669;51.076;3.714;2022-12-05T08:50:54;4.10;99.90
21023;DHT22;10669;51.076;3.714;2022-12-05T08:53:19;4.30;99.90
21023;DHT22;10669;51.076;3.714;2022-12-05T08:55:45;4.40;99.90
21023;DHT22;10669;51.076;3.714;2022-12-05T08:58:12;4.50;99.90
21023;DHT22;10669;51.076;3.714;2022-12-05T09:00:39;4.50;99.90
21023;DHT22;10669;51.076;3.714;2022-12-05T09:03:05;4.50;99.90
21023;DHT22;10669;51.076;3.714;2022-12-05T09:05:33;4.50;99.90
21023;DHT22;10669;51.076;3.714;2022-12-05T09:07:58;4.40;99.90
21023;DHT22;10669;51.076;3.714;2022-12-05T09:10:25;4.90;99.90
21023;DHT22;10669;51.076;3.714;2022-12-05T09:12:52;5.00;99.90
21023;DHT22;10669;51.076;3.714;2022-12-05T09:15:19;5.10;99.90
21023;DHT22;10669;51.076;3.714;2022-12-05T09:17:46;5.30;99.90
21023;DHT22;10669;51.076;3.714;2022-12-05T09:20:12;5.40;99.90
21023;DHT22;10669;51.076;3.714;2022-12-05T09:22:41;5.50;99.90
21023;DHT22;10669;51.076;3.714;2022-12-05T09:25:08;5.10;99.90
21023;DHT22;10669;51.076;3.714;2022-12-05T09:27:35;5.20;99.90
21023;DHT22;10669;51.076;3.714;2022-12-05T09:30:02;5.40;99.90
21023;DHT22;10669;51.076;3.714;2022-12-05T09:32:28;5.20;99.90
21023;DHT22;10669;51.076;3.714;2022-12-05T09:34:55;5.40;99.90
21023;DHT22;10669;51.076;3.714;2022-12-05T09:37:21;5.00;99.90
21023;DHT22;10669;51.076;3.714;2022-12-05T09:39:48;4.80;99.90
21023;DHT22;10669;51.076;3.714;2022-12-05T09:42:38;4.90;99.90
21023;DHT22;10669;51.076;3.714;2022-12-05T09:45:20;5.20;99.90
21023;DHT22;10669;51.076;3.714;2022-12-05T09:48:00;5.50;99.90
21023;DHT22;10669;51.076;3.714;2022-12-05T09:53:27;5.20;99.90
21023;DHT22;10669;51.076;3.714;2022-12-05T09:56:17;5.10;99.90
21023;DHT22;10669;51.076;3.714;2022-12-05T09:58:54;4.80;99.90
21023;DHT22;10669;51.076;3.714;2022-12-05T10:01:37;4.90;99.90
21023;DHT22;10669;51.076;3.714;2022-12-05T10:04:43;5.00;99.90
21023;DHT22;10669;51.076;3.714;2022-12-05T10:07:21;5.20;99.90
21023;DHT22;10669;51.076;3.714;2022-12-05T10:10:24;4.90;99.90
21023;DHT22;10669;51.076;3.714;2022-12-05T10:20:49;5.80;99.90
21023;DHT22;10669;51.076;3.714;2022-12-05T10:23:38;5.90;99.90
21023;DHT22;10669;51.076;3.714;2022-12-05T10:26:10;6.20;99.90
21023;DHT22;10669;51.076;3.714;2022-12-05T10:28:41;6.20;98.40
21023;DHT22;10669;51.076;3.714;2022-12-05T10:31:13;5.90;97.80
21023;DHT22;10669;51.076;3.714;2022-12-05T10:33:46;5.90;99.50
21023;DHT22;10669;51.076;3.714;2022-12-05T10:36:14;5.80;99.90
21023;DHT22;10669;51.076;3.714;2022-12-05T10:38:41;6.20;99.90
21023;DHT22;10669;51.076;3.714;2022-12-05T10:41:11;6.40;97.40
21023;DHT22;10669;51.076;3.714;2022-12-05T10:43:41;6.50;92.50
21023;DHT22;10669;51.076;3.714;2022-12-05T10:46:07;6.60;87.10
21023;DHT22;10669;51.076;3.714;2022-12-05T10:48:37;6.30;89.40
21023;DHT22;10669;51.076;3.714;2022-12-05T10:51:04;6.00;88.60
21023;DHT22;10669;51.076;3.714;2022-12-05T10:53:43;5.50;97.20
21023;DHT22;10669;51.076;3.714;2022-12-05T10:59:01;5.30;99.90
21023;DHT22;10669;51.076;3.714;2022-12-05T11:01:30;5.20;99.90
21023;DHT22;10669;51.076;3.714;2022-12-05T11:03:58;5.40;99.90
21023;DHT22;10669;51.076;3.714;2022-12-05T11:06:29;5.70;99.90
21023;DHT22;10669;51.076;3.714;2022-12-05T11:12:13;6.20;99.90
21023;DHT22;10669;51.076;3.714;2022-12-05T11:14:40;6.00;99.00
21023;DHT22;10669;51.076;3.714;2022-12-05T11:17:26;6.10;99.60
21023;DHT22;10669;51.076;3.714;2022-12-05T11:19:55;6.40;95.50
21023;DHT22;10669;51.076;3.714;2022-12-05T11:22:30;5.90;90.80
21023;DHT22;10669;51.076;3.714;2022-12-05T11:24:56;5.80;96.50
21023;DHT22;10669;51.076;3.714;2022-12-05T11:27:30;6.00;94.10
21023;DHT22;10669;51.076;3.714;2022-12-05T11:30:19;5.80;94.80
21023;DHT22;10669;51.076;3.714;2022-12-05T11:32:45;5.60;98.00
21023;DHT22;10669;51.076;3.714;2022-12-05T11:38:01;5.80;99.90
21023;DHT22;10669;51.076;3.714;2022-12-05T11:45:39;6.00;99.90
21023;DHT22;10669;51.076;3.714;2022-12-05T11:51:10;5.60;97.30
21023;DHT22;10669;51.076;3.714;2022-12-05T11:56:37;5.70;99.90
21023;DHT22;10669;51.076;3.714;2022-12-05T12:04:26;6.50;95.30
21023;DHT22;10669;51.076;3.714;2022-12-05T12:07:03;6.10;90.80
21023;DHT22;10669;51.076;3.714;2022-12-05T12:10:07;6.10;95.60
21023;DHT22;10669;51.076;3.714;2022-12-05T12:18:08;5.70;97.30
21023;DHT22;10669;51.076;3.714;2022-12-05T12:23:31;6.10;99.90
21023;DHT22;10669;51.076;3.714;2022-12-05T12:26:19;6.30;99.90
21023;DHT22;10669;51.076;3.714;2022-12-05T12:34:26;6.70;90.50
21023;DHT22;10669;51.076;3.714;2022-12-05T12:39:43;6.50;94.60
21023;DHT22;10669;51.076;3.714;2022-12-05T12:42:36;6.10;93.20
21023;DHT22;10669;51.076;3.714;2022-12-05T12:50:52;6.70;94.70
21023;DHT22;10669;51.076;3.714;2022-12-05T12:56:30;6.90;88.10
21023;DHT22;10669;51.076;3.714;2022-12-05T13:01:42;7.00;77.70
21023;DHT22;10669;51.076;3.714;2022-12-05T13:07:26;7.10;83.50
21023;DHT22;10669;51.076;3.714;2022-12-05T13:12:42;7.70;71.50
21023;DHT22;10669;51.076;3.714;2022-12-05T13:15:22;7.40;61.00
21023;DHT22;10669;51.076;3.714;2022-12-05T13:17:49;7.50;67.20
21023;DHT22;10669;51.076;3.714;2022-12-05T13:20:20;7.50;66.10
21023;DHT22;10669;51.076;3.714;2022-12-05T13:22:48;7.70;60.20
21023;DHT22;10669;51.076;3.714;2022-12-05T13:25:15;7.60;57.50
21023;DHT22;10669;51.076;3.714;2022-12-05T13:28:02;7.60;61.80
21023;DHT22;10669;51.076;3.714;2022-12-05T13:30:29;7.70;65.80
21023;DHT22;10669;51.076;3.714;2022-12-05T13:32:58;8.00;56.90
21023;DHT22;10669;51.076;3.714;2022-12-05T13:35:34;7.90;48.80
21023;DHT22;10669;51.076;3.714;2022-12-05T13:38:38;7.60;52.40
21023;DHT22;10669;51.076;3.714;2022-12-05T13:41:45;7.70;58.30
21023;DHT22;10669;51.076;3.714;2022-12-05T13:44:41;7.50;54.20
21023;DHT22;10669;51.076;3.714;2022-12-05T13:52:29;6.50;86.30
21023;DHT22;10669;51.076;3.714;2022-12-05T13:55:23;6.80;91.80
21023;DHT22;10669;51.076;3.714;2022-12-05T13:57:53;7.30;84.50
21023;DHT22;10669;51.076;3.714;2022-12-05T14:00:23;7.30;74.70
21023;DHT22;10669;51.076;3.714;2022-12-05T14:02:55;7.70;67.40
21023;DHT22;10669;51.076;3.714;2022-12-05T14:07:49;7.60;48.40
21023;DHT22;10669;51.076;3.714;2022-12-05T14:11:05;7.20;52.20
21023;DHT22;10669;51.076;3.714;2022-12-05T14:15:42;6.90;75.90
21023;DHT22;10669;51.076;3.714;2022-12-05T14:18:23;6.90;82.10
21023;DHT22;10669;51.076;3.714;2022-12-05T14:26:34;7.40;77.70
21023;DHT22;10669;51.076;3.714;2022-12-05T14:29:16;7.30;75.60
21023;DHT22;10669;51.076;3.714;2022-12-05T14:34:27;7.20;85.10
21023;DHT22;10669;51.076;3.714;2022-12-05T14:37:20;7.30;71.60
21023;DHT22;10669;51.076;3.714;2022-12-05T14:39:50;6.90;87.20
21023;DHT22;10669;51.076;3.714;2022-12-05T14:42:39;6.90;90.50
21023;DHT22;10669;51.076;3.714;2022-12-05T14:47:58;6.80;89.90
21023;DHT22;10669;51.076;3.714;2022-12-05T14:56:12;7.10;90.30
21023;DHT22;10669;51.076;3.714;2022-12-05T14:58:52;6.70;92.60
21023;DHT22;10669;51.076;3.714;2022-12-05T15:01:30;6.80;95.20
21023;DHT22;10669;51.076;3.714;2022-12-05T15:04:14;6.60;94.80
21023;DHT22;10669;51.076;3.714;2022-12-05T15:16:21;6.60;98.50
21023;DHT22;10669;51.076;3.714;2022-12-05T15:18:53;6.50;97.80
21023;DHT22;10669;51.076;3.714;2022-12-05T15:21:39;6.40;99.90
21023;DHT22;10669;51.076;3.714;2022-12-05T15:24:12;6.50;99.90
21023;DHT22;10669;51.076;3.714;2022-12-05T15:31:52;6.20;99.90
21023;DHT22;10669;51.076;3.714;2022-12-05T15:40:33;6.70;99.90
21023;DHT22;10669;51.076;3.714;2022-12-05T15:43:25;6.60;99.90
21023;DHT22;10669;51.076;3.714;2022-12-05T15:48:56;6.20;99.90
21023;DHT22;10669;51.076;3.714;2022-12-05T15:51:30;6.40;99.90
21023;DHT22;10669;51.076;3.714;2022-12-05T15:56:44;6.30;99.90
21023;DHT22;10669;51.076;3.714;2022-12-05T15:59:20;6.40;99.90
21023;DHT22;10669;51.076;3.714;2022-12-05T16:01:59;6.20;99.90
21023;DHT22;10669;51.076;3.714;2022-12-05T16:04:35;6.30;99.90
21023;DHT22;10669;51.076;3.714;2022-12-05T16:07:07;6.50;99.90
21023;DHT22;10669;51.076;3.714;2022-12-05T16:09:39;6.30;99.90
21023;DHT22;10669;51.076;3.714;2022-12-05T16:12:17;6.30;99.90
21023;DHT22;10669;51.076;3.714;2022-12-05T16:14:48;6.40;99.90
21023;DHT22;10669;51.076;3.714;2022-12-05T16:17:15;6.60;99.90
21023;DHT22;10669;51.076;3.714;2022-12-05T16:19:41;6.70;99.90
21023;DHT22;10669;51.076;3.714;2022-12-05T16:24:44;6.60;99.90
21023;DHT22;10669;51.076;3.714;2022-12-05T16:27:20;6.50;99.90
21023;DHT22;10669;51.076;3.714;2022-12-05T16:30:07;6.60;99.90
21023;DHT22;10669;51.076;3.714;2022-12-05T16:32:37;6.70;99.90
21023;DHT22;10669;51.076;3.714;2022-12-05T16:35:03;6.60;99.90
21023;DHT22;10669;51.076;3.714;2022-12-05T16:37:49;6.70;99.90
21023;DHT22;10669;51.076;3.714;2022-12-05T16:40:21;6.60;99.90
21023;DHT22;10669;51.076;3.714;2022-12-05T16:43:00;6.50;99.90
21023;DHT22;10669;51.076;3.714;2022-12-05T16:45:44;6.50;99.90
21023;DHT22;10669;51.076;3.714;2022-12-05T16:48:29;6.60;99.90
21023;DHT22;10669;51.076;3.714;2022-12-05T16:53:41;6.50;99.90
21023;DHT22;10669;51.076;3.714;2022-12-05T16:56:13;6.60;99.90
21023;DHT22;10669;51.076;3.714;2022-12-05T16:58:40;6.50;99.90
21023;DHT22;10669;51.076;3.714;2022-12-05T17:01:06;6.50;99.90
21023;DHT22;10669;51.076;3.714;2022-12-05T17:03:38;6.40;99.90
21023;DHT22;10669;51.076;3.714;2022-12-05T17:06:04;6.30;99.90
21023;DHT22;10669;51.076;3.714;2022-12-05T17:08:30;6.40;99.90
21023;DHT22;10669;51.076;3.714;2022-12-05T17:10:56;6.50;99.90
21023;DHT22;10669;51.076;3.714;2022-12-05T17:13:23;6.60;99.90
21023;DHT22;10669;51.076;3.714;2022-12-05T17:15:48;6.70;99.90
21023;DHT22;10669;51.076;3.714;2022-12-05T17:18:17;6.50;99.90
21023;DHT22;10669;51.076;3.714;2022-12-05T17:20:49;6.50;99.90
21023;DHT22;10669;51.076;3.714;2022-12-05T17:23:16;6.70;99.90
21023;DHT22;10669;51.076;3.714;2022-12-05T17:25:45;6.80;99.90
21023;DHT22;10669;51.076;3.714;2022-12-05T17:28:14;6.90;99.90
21023;DHT22;10669;51.076;3.714;2022-12-05T17:30:39;6.80;99.90
21023;DHT22;10669;51.076;3.714;2022-12-05T17:33:08;6.80;99.90
21023;DHT22;10669;51.076;3.714;2022-12-05T17:35:34;6.80;99.90
21023;DHT22;10669;51.076;3.714;2022-12-05T17:38:02;6.80;99.90
21023;DHT22;10669;51.076;3.714;2022-12-05T17:40:28;6.50;99.90
21023;DHT22;10669;51.076;3.714;2022-12-05T17:42:54;6.40;99.90
21023;DHT22;10669;51.076;3.714;2022-12-05T17:45:20;6.40;99.90
21023;DHT22;10669;51.076;3.714;2022-12-05T17:47:46;6.60;99.90
21023;DHT22;10669;51.076;3.714;2022-12-05T17:50:17;6.80;99.90
21023;DHT22;10669;51.076;3.714;2022-12-05T17:52:44;6.60;99.90
21023;DHT22;10669;51.076;3.714;2022-12-05T17:55:22;6.60;99.90
21023;DHT22;10669;51.076;3.714;2022-12-05T17:57:50;6.70;99.90
21023;DHT22;10669;51.076;3.714;2022-12-05T18:00:20;6.70;99.90
21023;DHT22;10669;51.076;3.714;2022-12-05T18:02:46;6.80;99.90
21023;DHT22;10669;51.076;3.714;2022-12-05T18:05:14;7.00;99.90
21023;DHT22;10669;51.076;3.714;2022-12-05T18:07:42;7.00;99.90
21023;DHT22;10669;51.076;3.714;2022-12-05T18:10:10;7.00;99.90
21023;DHT22;10669;51.076;3.714;2022-12-05T18:12:38;7.00;99.90
21023;DHT22;10669;51.076;3.714;2022-12-05T18:15:04;7.10;99.90
21023;DHT22;10669;51.076;3.714;2022-12-05T18:17:30;7.30;99.90
21023;DHT22;10669;51.076;3.714;2022-12-05T18:19:56;7.20;99.90
21023;DHT22;10669;51.076;3.714;2022-12-05T18:22:23;7.40;99.90
21023;DHT22;10669;51.076;3.714;2022-12-05T18:24:49;7.20;99.90
21023;DHT22;10669;51.076;3.714;2022-12-05T18:27:16;7.20;99.90
21023;DHT22;10669;51.076;3.714;2022-12-05T18:29:41;7.40;99.90
21023;DHT22;10669;51.076;3.714;2022-12-05T18:32:07;7.40;99.90
21023;DHT22;10669;51.076;3.714;2022-12-05T18:34:32;7.60;98.00
21023;DHT22;10669;51.076;3.714;2022-12-05T18:36:58;7.30;94.60
21023;DHT22;10669;51.076;3.714;2022-12-05T18:39:24;7.10;97.30
21023;DHT22;10669;51.076;3.714;2022-12-05T18:41:49;6.90;98.40
21023;DHT22;10669;51.076;3.714;2022-12-05T18:44:15;7.10;99.90
21023;DHT22;10669;51.076;3.714;2022-12-05T18:46:42;7.00;99.60
21023;DHT22;10669;51.076;3.714;2022-12-05T18:49:07;7.10;99.90
21023;DHT22;10669;51.076;3.714;2022-12-05T18:51:35;7.00;99.90
21023;DHT22;10669;51.076;3.714;2022-12-05T18:54:01;7.00;99.90
21023;DHT22;10669;51.076;3.714;2022-12-05T18:56:28;7.20;99.90
21023;DHT22;10669;51.076;3.714;2022-12-05T18:58:59;7.20;99.90
21023;DHT22;10669;51.076;3.714;2022-12-05T19:01:28;7.20;98.10
21023;DHT22;10669;51.076;3.714;2022-12-05T19:03:58;7.40;99.90